Time;durP1;ratioP1;P1;durP2;ratioP2;P2;SDS_P1;SDS_P2;PMS_P1;PMS_P2;Temp;Humidity;BMP_temperature;BMP_pressure;BME280_temperature;BME280_humidity;BME280_pressure;Samples;Min_cycle;Max_cycle;Signal;HPM_P1;HPM_P2
2022/02/05 00:00:46;;;;;;;1.42;1.10;;;7.60;99.90;;;;;;5135108;27;20226;-63
2022/02/05 00:03:20;;;;;;;5.10;1.60;;;7.60;99.90;;;;;;5132983;27;20342;-63
2022/02/05 00:05:52;;;;;;;1.30;1.20;;;7.50;99.90;;;;;;5124941;27;20236;-63
2022/02/05 00:08:34;;;;;;;1.45;1.23;;;7.60;99.90;;;;;;5135852;27;20230;-63
2022/02/05 00:11:46;;;;;;;1.13;0.95;;;7.60;99.90;;;;;;5135435;27;20222;-63
2022/02/05 00:42:09;;;;;;;3.33;1.48;;;7.70;99.90;;;;;;5125008;27;20620;-64
2022/02/05 00:44:36;;;;;;;2.67;2.00;;;7.70;99.90;;;;;;5133630;27;20288;-64
2022/02/05 00:47:04;;;;;;;11.85;5.72;;;7.70;99.90;;;;;;5129304;27;20218;-64
2022/02/05 00:49:30;;;;;;;41.95;25.45;;;7.70;99.90;;;;;;5134649;27;20676;-64
2022/02/05 00:52:05;;;;;;;4.13;2.85;;;7.70;99.90;;;;;;5133735;27;20230;-64
2022/02/05 00:54:32;;;;;;;5.28;2.50;;;7.70;99.90;;;;;;5133581;27;20229;-64
2022/02/05 00:59:43;;;;;;;3.80;2.20;;;7.70;99.90;;;;;;5134423;27;20236;-64
2022/02/05 01:02:10;;;;;;;3.15;2.90;;;7.70;99.90;;;;;;5132153;27;20226;-63
2022/02/05 01:04:36;;;;;;;2.97;2.05;;;7.70;99.90;;;;;;5134701;27;20363;-64
2022/02/05 01:07:05;;;;;;;1.92;1.77;;;7.70;99.90;;;;;;5133943;27;20214;-64
2022/02/05 01:09:32;;;;;;;4.80;2.83;;;7.70;99.90;;;;;;5134450;27;20228;-63
2022/02/05 01:12:01;;;;;;;2.50;2.20;;;7.70;99.90;;;;;;5134227;27;20317;-64
2022/02/05 01:14:32;;;;;;;3.00;2.35;;;7.80;99.90;;;;;;5134623;27;20221;-64
2022/02/05 01:17:03;;;;;;;5.20;2.15;;;7.80;99.90;;;;;;5134082;27;20294;-64
2022/02/05 01:20:03;;;;;;;2.40;2.20;;;7.70;99.90;;;;;;5123828;27;20210;-65
2022/02/05 01:22:34;;;;;;;5.95;3.25;;;7.80;99.90;;;;;;5134534;27;20571;-64
2022/02/05 01:25:01;;;;;;;3.72;2.88;;;7.80;99.90;;;;;;5134602;27;20233;-64
2022/02/05 01:27:36;;;;;;;3.50;2.35;;;7.80;99.90;;;;;;5133689;27;20352;-65
2022/02/05 01:30:15;;;;;;;5.65;3.95;;;7.70;99.90;;;;;;5120793;27;20234;-64
2022/02/05 01:32:49;;;;;;;6.38;2.65;;;7.70;99.90;;;;;;5133980;27;20330;-64
2022/02/05 01:35:23;;;;;;;2.63;2.20;;;7.80;99.90;;;;;;5134291;27;20379;-64
2022/02/05 01:51:45;;;;;;;7.68;3.60;;;7.90;99.90;;;;;;5120993;27;20231;-64
2022/02/05 01:54:32;;;;;;;3.03;2.72;;;7.90;99.90;;;;;;5114327;27;20770;-64
2022/02/05 01:57:03;;;;;;;8.07;3.45;;;7.90;99.90;;;;;;5129320;27;20219;-64
2022/02/05 01:59:45;;;;;;;6.90;3.90;;;7.90;99.90;;;;;;5132940;27;20265;-64
2022/02/05 02:05:00;;;;;;;5.07;2.70;;;8.00;99.90;;;;;;5127937;27;20703;-64
2022/02/05 02:10:39;;;;;;;2.90;2.70;;;8.00;99.90;;;;;;5129490;27;20681;-64
2022/02/05 02:13:34;;;;;;;11.48;6.55;;;8.00;99.90;;;;;;5133285;27;20242;-64
2022/02/05 02:16:12;;;;;;;3.95;2.90;;;8.00;99.90;;;;;;5126089;27;20275;-64
2022/02/05 02:18:52;;;;;;;3.78;2.63;;;8.00;99.90;;;;;;5133363;27;20233;-64
2022/02/05 02:21:29;;;;;;;5.68;4.40;;;8.10;99.90;;;;;;5143414;27;20218;-64
2022/02/05 02:24:04;;;;;;;7.47;2.70;;;8.10;99.90;;;;;;5133329;27;20217;-64
2022/02/05 02:26:44;;;;;;;2.33;2.00;;;8.10;99.90;;;;;;5123537;27;20833;-64
2022/02/05 02:29:15;;;;;;;5.15;2.90;;;8.10;99.90;;;;;;5132976;27;20237;-64
2022/02/05 02:31:45;;;;;;;7.70;2.92;;;8.10;99.90;;;;;;5133657;27;20230;-64
2022/02/05 02:34:17;;;;;;;6.50;2.45;;;8.10;99.90;;;;;;5133065;27;20218;-64
2022/02/05 02:36:50;;;;;;;7.25;3.40;;;8.10;99.90;;;;;;5133519;27;20214;-64
2022/02/05 02:39:20;;;;;;;6.10;3.50;;;8.00;99.90;;;;;;5133122;27;20664;-64
2022/02/05 02:41:51;;;;;;;3.78;2.60;;;8.10;99.90;;;;;;5126906;27;20218;-64
2022/02/05 02:44:18;;;;;;;5.43;2.35;;;8.10;99.90;;;;;;5127542;27;20222;-64
2022/02/05 02:46:44;;;;;;;18.40;6.65;;;8.10;99.90;;;;;;5133465;27;20218;-64
2022/02/05 02:49:16;;;;;;;7.78;2.80;;;8.00;99.90;;;;;;5124744;27;20241;-64
2022/02/05 02:57:22;;;;;;;5.25;3.25;;;8.00;99.90;;;;;;5137139;27;20699;-64
2022/02/05 02:59:55;;;;;;;6.18;2.92;;;8.10;99.90;;;;;;5129896;27;20249;-64
2022/02/05 03:02:25;;;;;;;7.05;3.20;;;8.10;99.90;;;;;;5133508;27;20230;-65
2022/02/05 03:04:53;;;;;;;8.13;4.72;;;8.10;99.90;;;;;;5136623;27;20234;-63
2022/02/05 03:07:27;;;;;;;6.15;3.58;;;8.00;99.90;;;;;;5136444;27;20246;-63
2022/02/05 03:09:56;;;;;;;4.05;2.88;;;8.10;99.90;;;;;;5129145;27;20701;-63
2022/02/05 03:12:23;;;;;;;3.05;2.60;;;8.10;99.90;;;;;;5136506;27;20287;-63
2022/02/05 03:14:51;;;;;;;4.60;2.58;;;8.10;99.90;;;;;;5137069;27;20237;-63
2022/02/05 03:17:20;;;;;;;2.88;2.15;;;8.00;99.90;;;;;;5136390;27;20219;-63
2022/02/05 03:19:49;;;;;;;4.03;2.97;;;8.10;99.90;;;;;;5136943;27;20297;-63
2022/02/05 03:22:17;;;;;;;7.35;2.80;;;8.10;99.90;;;;;;5136575;27;20218;-63
2022/02/05 03:24:46;;;;;;;2.97;2.55;;;8.10;99.90;;;;;;5136888;27;20218;-63
2022/02/05 03:27:14;;;;;;;3.13;2.50;;;8.10;99.90;;;;;;5136203;27;20222;-63
2022/02/05 03:29:44;;;;;;;3.30;2.70;;;8.10;99.90;;;;;;5132840;27;20245;-63
2022/02/05 03:32:11;;;;;;;4.47;2.10;;;8.20;99.90;;;;;;5136421;27;20312;-63
2022/02/05 03:34:39;;;;;;;4.68;2.22;;;8.20;99.90;;;;;;5128226;27;20487;-63
2022/02/05 03:37:06;;;;;;;5.30;3.08;;;8.20;99.90;;;;;;5136677;27;20218;-64
2022/02/05 03:39:33;;;;;;;6.40;2.65;;;8.20;99.90;;;;;;5140831;27;20225;-63
2022/02/05 03:42:02;;;;;;;27.38;17.92;;;8.20;99.90;;;;;;5128164;27;20676;-63
2022/02/05 03:44:29;;;;;;;5.47;3.33;;;8.20;99.90;;;;;;5134247;27;20231;-63
2022/02/05 03:46:56;;;;;;;4.97;3.28;;;8.20;99.90;;;;;;5142369;27;20213;-63
2022/02/05 03:49:24;;;;;;;5.13;3.92;;;8.20;99.90;;;;;;5138145;27;20233;-63
2022/02/05 03:51:52;;;;;;;6.28;3.35;;;8.30;99.90;;;;;;5135925;27;20226;-62
2022/02/05 03:54:21;;;;;;;5.50;4.25;;;8.30;99.90;;;;;;5135732;27;20229;-62
2022/02/05 03:56:52;;;;;;;9.73;3.50;;;8.30;99.90;;;;;;5136137;27;20687;-62
2022/02/05 03:59:20;;;;;;;5.72;3.20;;;8.30;99.90;;;;;;5133947;27;20227;-62
2022/02/05 04:01:48;;;;;;;6.63;3.55;;;8.30;99.90;;;;;;5136028;27;20226;-62
2022/02/05 04:04:15;;;;;;;4.57;3.47;;;8.30;99.90;;;;;;5134542;27;20219;-62
2022/02/05 04:06:42;;;;;;;15.85;4.20;;;8.20;99.90;;;;;;5136006;27;20238;-62
2022/02/05 04:09:17;;;;;;;5.97;4.60;;;8.30;99.90;;;;;;5135884;27;20552;-62
2022/02/05 04:11:57;;;;;;;5.30;4.80;;;8.20;99.90;;;;;;5135654;27;20655;-62
2022/02/05 04:17:10;;;;;;;5.20;4.47;;;8.20;99.90;;;;;;5135685;27;20275;-62
2022/02/05 04:19:37;;;;;;;6.57;4.35;;;8.20;99.90;;;;;;5135275;27;20236;-63
2022/02/05 04:22:04;;;;;;;14.25;7.13;;;8.30;99.90;;;;;;5135807;27;20679;-62
2022/02/05 04:24:31;;;;;;;6.53;5.57;;;8.20;99.90;;;;;;5135295;27;20227;-62
2022/02/05 04:26:58;;;;;;;6.03;5.13;;;8.20;99.90;;;;;;5135750;27;20226;-62
2022/02/05 04:29:26;;;;;;;6.68;5.18;;;8.20;99.90;;;;;;5135078;27;20218;-62
2022/02/05 04:31:53;;;;;;;7.60;6.30;;;8.20;99.90;;;;;;5135720;27;20245;-62
2022/02/05 04:34:20;;;;;;;6.95;6.25;;;8.20;99.90;;;;;;5135380;27;20222;-62
2022/02/05 04:36:47;;;;;;;11.00;6.55;;;8.20;99.90;;;;;;5134971;27;20993;-63
2022/02/05 04:39:17;;;;;;;10.73;6.88;;;8.20;99.90;;;;;;5127072;27;20309;-63
2022/02/05 04:41:50;;;;;;;10.15;6.28;;;8.20;99.90;;;;;;5129111;27;20223;-62
2022/02/05 04:44:48;;;;;;;9.00;5.88;;;8.20;99.90;;;;;;5130692;27;20686;-63
2022/02/05 04:47:40;;;;;;;5.95;5.25;;;8.20;99.90;;;;;;5135179;27;20561;-63
2022/02/05 04:50:22;;;;;;;7.68;5.10;;;8.20;99.90;;;;;;5134556;27;20280;-63
2022/02/05 04:53:11;;;;;;;9.07;5.75;;;8.20;99.90;;;;;;5134536;27;20218;-63
2022/02/05 04:56:00;;;;;;;10.23;6.70;;;8.20;99.90;;;;;;5123432;27;20315;-63
2022/02/05 04:58:46;;;;;;;10.00;5.30;;;8.20;99.90;;;;;;5134492;27;20226;-63
2022/02/05 05:01:21;;;;;;;6.18;4.85;;;8.30;99.90;;;;;;5131148;27;20262;-64
2022/02/05 05:04:03;;;;;;;4.35;3.50;;;8.20;99.90;;;;;;5134612;27;20275;-63
2022/02/05 05:09:21;;;;;;;9.20;5.75;;;8.30;99.90;;;;;;5134879;27;20222;-63
2022/02/05 05:12:21;;;;;;;8.60;4.70;;;8.30;99.90;;;;;;5134237;27;20278;-63
2022/02/05 05:20:20;;;;;;;5.20;3.85;;;8.30;99.90;;;;;;5134654;27;20234;-63
2022/02/05 05:22:49;;;;;;;4.38;3.63;;;8.40;99.90;;;;;;5134207;27;20723;-63
2022/02/05 05:25:17;;;;;;;6.40;3.28;;;8.40;99.90;;;;;;5134554;27;20245;-63
2022/02/05 05:27:44;;;;;;;3.72;3.35;;;8.40;99.90;;;;;;5134020;27;20225;-64
2022/02/05 05:30:12;;;;;;;5.53;3.67;;;8.40;99.90;;;;;;5134381;27;20222;-63
2022/02/05 05:32:39;;;;;;;3.38;2.90;;;8.50;99.90;;;;;;5134031;27;20585;-63
2022/02/05 05:35:07;;;;;;;6.65;3.10;;;8.50;99.90;;;;;;5134405;27;20556;-63
2022/02/05 05:37:35;;;;;;;6.57;3.20;;;8.50;99.90;;;;;;5139440;27;20221;-63
2022/02/05 05:40:02;;;;;;;6.72;3.53;;;8.50;99.90;;;;;;5140730;27;20230;-63
2022/02/05 05:42:35;;;;;;;5.18;2.75;;;8.50;99.90;;;;;;5127997;27;20230;-64
2022/02/05 05:45:24;;;;;;;3.03;2.70;;;8.60;99.90;;;;;;5129599;27;20392;-63
2022/02/05 05:47:54;;;;;;;5.30;2.80;;;8.60;99.90;;;;;;5133737;27;20228;-63
2022/02/05 05:53:08;;;;;;;6.38;3.80;;;8.50;99.90;;;;;;5134356;27;20229;-63
2022/02/05 05:55:35;;;;;;;4.50;3.70;;;8.50;99.90;;;;;;5133778;27;20241;-63
2022/02/05 05:58:03;;;;;;;6.05;3.17;;;8.50;99.90;;;;;;5133952;27;20233;-64
2022/02/05 06:00:30;;;;;;;4.05;2.90;;;8.50;99.90;;;;;;5133658;27;20350;-63
2022/02/05 06:02:57;;;;;;;6.22;2.83;;;8.40;99.90;;;;;;5133718;27;20579;-63
2022/02/05 06:05:23;;;;;;;8.95;3.35;;;8.50;99.90;;;;;;5133315;27;20222;-63
2022/02/05 06:07:50;;;;;;;3.40;2.90;;;8.50;99.90;;;;;;5133830;27;20229;-63
2022/02/05 06:10:18;;;;;;;5.40;3.20;;;8.40;99.90;;;;;;5133442;27;20576;-63
2022/02/05 06:12:45;;;;;;;4.05;3.03;;;8.40;99.90;;;;;;5133780;27;20229;-63
2022/02/05 06:15:12;;;;;;;10.38;5.10;;;8.50;99.90;;;;;;5133359;27;20233;-63
2022/02/05 06:17:39;;;;;;;7.00;4.10;;;8.40;99.90;;;;;;5133556;27;20551;-64
2022/02/05 06:20:08;;;;;;;8.00;3.45;;;8.40;99.90;;;;;;5133586;27;20676;-64
2022/02/05 06:22:35;;;;;;;6.25;3.10;;;8.40;99.90;;;;;;5133117;27;20218;-64
2022/02/05 06:25:02;;;;;;;7.55;3.72;;;8.40;99.90;;;;;;5133600;27;20241;-62
2022/02/05 06:27:30;;;;;;;3.92;3.30;;;8.40;99.90;;;;;;5131938;27;20229;-63
2022/02/05 06:29:56;;;;;;;8.02;4.00;;;8.30;99.90;;;;;;5131470;27;20242;-63
2022/02/05 06:32:24;;;;;;;5.97;4.13;;;8.30;99.90;;;;;;5131838;27;20222;-62
2022/02/05 06:34:50;;;;;;;8.38;4.13;;;8.40;99.90;;;;;;5132479;27;20214;-63
2022/02/05 06:37:18;;;;;;;5.07;3.85;;;8.30;99.90;;;;;;5131401;27;20242;-63
2022/02/05 06:39:45;;;;;;;6.65;3.72;;;8.40;99.90;;;;;;5131448;27;20275;-62
2022/02/05 06:42:12;;;;;;;5.53;3.63;;;8.40;99.90;;;;;;5131405;27;20236;-62
2022/02/05 06:44:40;;;;;;;6.55;4.00;;;8.40;99.90;;;;;;5130472;27;20806;-63
2022/02/05 06:47:08;;;;;;;5.00;3.70;;;8.40;99.90;;;;;;5131570;27;20229;-63
2022/02/05 06:49:35;;;;;;;5.75;3.67;;;8.40;99.90;;;;;;5130901;27;20225;-63
2022/02/05 06:52:03;;;;;;;5.35;3.70;;;8.40;99.90;;;;;;5132254;27;20245;-63
2022/02/05 06:54:30;;;;;;;4.82;3.85;;;8.40;99.90;;;;;;5132862;27;20679;-63
2022/02/05 06:56:57;;;;;;;6.13;3.90;;;8.40;99.90;;;;;;5133389;27;20226;-63
2022/02/05 06:59:23;;;;;;;4.82;3.97;;;8.30;99.90;;;;;;5129441;27;20223;-63
2022/02/05 07:01:51;;;;;;;3.95;3.55;;;8.30;99.90;;;;;;5124182;27;20218;-63
2022/02/05 07:04:23;;;;;;;5.78;3.70;;;8.20;99.90;;;;;;5132685;27;20218;-63
2022/02/05 07:06:52;;;;;;;8.45;4.82;;;8.10;99.90;;;;;;5132720;27;20238;-63
2022/02/05 07:09:20;;;;;;;6.03;3.13;;;8.00;99.90;;;;;;5132859;27;20226;-63
2022/02/05 07:11:47;;;;;;;4.43;2.30;;;7.90;99.90;;;;;;5132798;27;20533;-63
2022/02/05 07:14:16;;;;;;;3.13;2.22;;;7.90;99.90;;;;;;5119773;27;20234;-62
2022/02/05 07:16:52;;;;;;;3.30;2.05;;;7.90;99.90;;;;;;5132630;27;20226;-62
2022/02/05 07:19:25;;;;;;;3.72;2.05;;;7.80;99.90;;;;;;5132285;27;20242;-62
2022/02/05 07:21:54;;;;;;;2.20;2.00;;;7.80;99.90;;;;;;5133215;27;20541;-62
2022/02/05 07:24:32;;;;;;;1.80;1.30;;;7.70;99.90;;;;;;5132629;27;20575;-63
2022/02/05 07:29:43;;;;;;;1.95;1.80;;;7.60;99.90;;;;;;5122547;27;20568;-63
2022/02/05 07:32:10;;;;;;;3.85;1.75;;;7.50;99.90;;;;;;5133004;27;20229;-63
2022/02/05 07:34:38;;;;;;;2.50;1.90;;;7.50;99.90;;;;;;5132514;27;20222;-63
2022/02/05 07:37:05;;;;;;;3.20;1.88;;;7.50;99.90;;;;;;5131186;27;20583;-62
2022/02/05 07:39:36;;;;;;;1.73;1.60;;;7.50;99.90;;;;;;5126493;27;20215;-63
2022/02/05 07:42:04;;;;;;;5.45;1.85;;;7.50;99.90;;;;;;5136418;27;20223;-63
2022/02/05 07:44:30;;;;;;;1.85;1.60;;;7.40;99.90;;;;;;5133488;27;20229;-64
2022/02/05 07:47:00;;;;;;;3.63;1.80;;;7.40;99.90;;;;;;5136444;27;20715;-62
2022/02/05 07:49:29;;;;;;;1.50;1.40;;;7.40;99.90;;;;;;5135802;27;20609;-63
2022/02/05 07:51:58;;;;;;;2.88;1.52;;;7.50;99.90;;;;;;5126886;27;20257;-62
2022/02/05 07:54:24;;;;;;;2.75;1.75;;;7.50;99.90;;;;;;5135829;27;20222;-63
2022/02/05 07:56:51;;;;;;;2.15;1.40;;;7.50;99.90;;;;;;5136179;27;20226;-63
2022/02/05 07:59:20;;;;;;;3.10;1.80;;;7.50;99.90;;;;;;5133520;27;20223;-63
2022/02/05 08:01:47;;;;;;;2.40;1.80;;;7.50;99.90;;;;;;5134011;27;20222;-62
2022/02/05 08:04:14;;;;;;;2.10;1.90;;;7.50;99.90;;;;;;5135870;27;20233;-62
2022/02/05 08:06:42;;;;;;;3.03;2.10;;;7.50;99.90;;;;;;5135632;27;20229;-63
2022/02/05 08:09:19;;;;;;;2.88;2.58;;;7.40;99.90;;;;;;5136091;27;20230;-63
2022/02/05 08:11:51;;;;;;;4.32;2.53;;;7.40;99.90;;;;;;5122433;27;20632;-63
2022/02/05 08:14:20;;;;;;;4.32;2.60;;;7.40;99.90;;;;;;5135804;27;20249;-63
2022/02/05 08:16:56;;;;;;;4.65;2.47;;;7.40;99.90;;;;;;5135379;27;20603;-62
2022/02/05 08:19:22;;;;;;;4.65;2.95;;;7.40;99.90;;;;;;5135806;27;20218;-63
2022/02/05 08:21:50;;;;;;;8.05;3.80;;;7.40;99.90;;;;;;5135698;27;20968;-62
2022/02/05 08:24:18;;;;;;;6.63;4.10;;;7.40;99.90;;;;;;5135755;27;20271;-63
2022/02/05 08:26:45;;;;;;;6.88;2.50;;;7.40;99.90;;;;;;5135395;27;20231;-63
2022/02/05 08:29:14;;;;;;;4.40;2.67;;;7.40;99.90;;;;;;5135435;27;20222;-62
2022/02/05 08:31:42;;;;;;;3.42;2.80;;;7.40;99.90;;;;;;5135251;27;20226;-63
2022/02/05 08:34:09;;;;;;;2.17;1.83;;;7.40;99.90;;;;;;5135426;27;20233;-62
2022/02/05 08:36:41;;;;;;;2.85;2.03;;;7.40;99.90;;;;;;5134993;27;20219;-63
2022/02/05 08:39:08;;;;;;;5.05;2.72;;;7.50;99.90;;;;;;5134118;27;20714;-63
2022/02/05 08:41:37;;;;;;;3.90;2.58;;;7.50;99.90;;;;;;5134736;27;20322;-62
2022/02/05 08:44:04;;;;;;;5.05;3.40;;;7.50;99.90;;;;;;5131343;27;20238;-63
2022/02/05 08:46:31;;;;;;;4.22;2.60;;;7.60;99.90;;;;;;5134617;27;20355;-63
2022/02/05 08:49:01;;;;;;;4.35;2.80;;;7.60;99.90;;;;;;5134787;27;20222;-62
2022/02/05 08:51:28;;;;;;;3.97;2.65;;;7.70;99.90;;;;;;5129906;27;20233;-63
2022/02/05 08:53:55;;;;;;;3.28;2.72;;;7.70;99.90;;;;;;5121267;27;20222;-63
2022/02/05 08:56:23;;;;;;;4.90;3.00;;;7.80;99.90;;;;;;5134888;27;20222;-63
2022/02/05 08:58:53;;;;;;;7.35;4.55;;;7.80;99.90;;;;;;5121270;27;20224;-62
2022/02/05 09:01:24;;;;;;;4.28;3.03;;;7.80;99.90;;;;;;5133763;27;20545;-63
2022/02/05 09:04:00;;;;;;;4.90;2.70;;;7.90;99.90;;;;;;5134329;27;20859;-63
2022/02/05 09:06:31;;;;;;;4.25;2.17;;;7.90;99.90;;;;;;5134750;27;20679;-63
2022/02/05 09:09:08;;;;;;;6.15;2.25;;;8.00;99.90;;;;;;5134646;27;20305;-63
2022/02/05 09:11:41;;;;;;;5.85;1.85;;;8.00;99.90;;;;;;5134276;27;20625;-63
2022/02/05 09:14:28;;;;;;;6.15;2.97;;;8.00;99.90;;;;;;5131599;27;20282;-63
2022/02/05 09:16:55;;;;;;;3.17;2.15;;;8.00;99.90;;;;;;5123723;27;20690;-64
2022/02/05 09:19:22;;;;;;;5.43;2.45;;;8.10;99.90;;;;;;5134276;27;20222;-63
2022/02/05 09:21:49;;;;;;;5.03;3.28;;;8.10;99.90;;;;;;5132412;27;20234;-62
2022/02/05 09:24:15;;;;;;;3.10;2.47;;;8.10;99.90;;;;;;5133621;27;20222;-62
2022/02/05 09:26:45;;;;;;;4.43;2.53;;;8.20;99.90;;;;;;5134005;27;20243;-62
2022/02/05 09:29:19;;;;;;;8.30;3.17;;;8.20;99.90;;;;;;5134343;27;20366;-64
2022/02/05 09:31:46;;;;;;;5.63;3.15;;;8.20;99.90;;;;;;5133885;27;20341;-62
2022/02/05 09:34:13;;;;;;;5.32;2.30;;;8.20;99.90;;;;;;5134290;27;20237;-63
2022/02/05 09:36:40;;;;;;;4.72;3.30;;;8.30;99.90;;;;;;5133770;27;20227;-62
2022/02/05 09:39:08;;;;;;;3.20;2.90;;;8.30;99.90;;;;;;5134097;27;20222;-63
2022/02/05 09:41:36;;;;;;;8.65;3.08;;;8.40;99.90;;;;;;5134082;27;20214;-63
2022/02/05 09:44:03;;;;;;;4.22;2.72;;;8.40;99.90;;;;;;5120352;27;20993;-63
2022/02/05 09:46:31;;;;;;;6.22;3.00;;;8.40;99.90;;;;;;5133975;27;20222;-63
2022/02/05 09:48:58;;;;;;;5.90;3.10;;;8.40;99.90;;;;;;5133667;27;20582;-63
2022/02/05 09:51:31;;;;;;;6.07;2.97;;;8.40;99.90;;;;;;5133894;27;20253;-63
2022/02/05 09:54:00;;;;;;;7.20;2.70;;;8.40;99.90;;;;;;5133516;27;21112;-63
2022/02/05 09:56:29;;;;;;;5.13;3.78;;;8.40;99.90;;;;;;5133836;27;20539;-63
2022/02/05 09:58:56;;;;;;;7.28;2.90;;;8.40;99.90;;;;;;5133335;27;20230;-63
2022/02/05 10:01:25;;;;;;;2.80;2.40;;;8.50;99.90;;;;;;5132860;27;20246;-63
2022/02/05 10:03:55;;;;;;;5.30;2.08;;;8.50;99.90;;;;;;5133319;27;20562;-63
2022/02/05 10:06:25;;;;;;;9.00;4.13;;;8.50;99.90;;;;;;5133754;27;20621;-63
2022/02/05 10:08:58;;;;;;;11.48;4.47;;;8.50;99.90;;;;;;5133461;27;20222;-63
2022/02/05 10:11:25;;;;;;;8.15;3.22;;;8.50;99.90;;;;;;5133773;27;20258;-63
2022/02/05 10:13:52;;;;;;;7.50;3.35;;;8.50;99.90;;;;;;5133219;27;20222;-63
2022/02/05 10:16:29;;;;;;;7.40;3.20;;;8.50;99.90;;;;;;5133445;27;20231;-63
2022/02/05 10:18:59;;;;;;;5.63;4.28;;;8.50;99.90;;;;;;5132982;27;20676;-62
2022/02/05 10:21:27;;;;;;;2.72;2.10;;;8.50;99.90;;;;;;5133747;27;20226;-62
2022/02/05 10:24:00;;;;;;;4.70;2.83;;;8.60;99.90;;;;;;5133086;27;20218;-62
2022/02/05 10:26:31;;;;;;;5.38;3.10;;;8.60;99.90;;;;;;5133080;27;20676;-63
2022/02/05 10:28:59;;;;;;;9.73;3.78;;;8.60;99.90;;;;;;5125636;27;20229;-63
2022/02/05 10:31:28;;;;;;;7.63;2.40;;;8.60;99.90;;;;;;5132507;27;20214;-63
2022/02/05 10:34:11;;;;;;;5.72;2.30;;;8.60;99.90;;;;;;5131839;27;20210;-63
2022/02/05 10:36:43;;;;;;;6.47;2.42;;;8.60;99.90;;;;;;5131318;27;20305;-63
2022/02/05 10:39:14;;;;;;;4.70;2.80;;;8.60;99.90;;;;;;5131366;27;20946;-63
2022/02/05 10:44:28;;;;;;;7.00;3.00;;;8.70;99.90;;;;;;5119570;27;20226;-62
2022/02/05 10:46:57;;;;;;;6.30;2.50;;;8.80;99.90;;;;;;5132485;27;20222;-62
2022/02/05 10:49:46;;;;;;;8.35;3.08;;;8.90;99.90;;;;;;5132845;27;20230;-63
2022/02/05 10:52:26;;;;;;;5.20;2.30;;;8.90;99.90;;;;;;5133090;27;20249;-62
2022/02/05 10:55:01;;;;;;;6.85;2.60;;;8.90;99.90;;;;;;5122096;27;20219;-63
2022/02/05 10:57:35;;;;;;;6.68;3.03;;;9.00;99.90;;;;;;5132843;27;20241;-63
2022/02/05 11:05:42;;;;;;;4.95;2.97;;;9.20;99.90;;;;;;5133057;27;20236;-63
2022/02/05 11:08:12;;;;;;;3.67;3.28;;;9.20;99.90;;;;;;5133261;27;20735;-63
2022/02/05 11:13:41;;;;;;;11.93;3.65;;;9.20;99.90;;;;;;5136181;27;20299;-62
2022/02/05 11:18:56;;;;;;;7.35;4.20;;;9.20;99.90;;;;;;5136747;27;20249;-62
2022/02/05 11:21:25;;;;;;;5.10;3.05;;;9.20;99.90;;;;;;5136781;27;20215;-63
2022/02/05 11:23:56;;;;;;;4.53;2.85;;;9.30;99.90;;;;;;5136626;27;20222;-63
2022/02/05 11:26:24;;;;;;;5.90;3.50;;;9.30;99.90;;;;;;5136874;27;20226;-62
2022/02/05 11:28:52;;;;;;;5.93;3.38;;;9.30;99.90;;;;;;5136366;27;20218;-63
2022/02/05 11:31:30;;;;;;;4.55;2.45;;;9.30;99.90;;;;;;5136524;27;20223;-63
2022/02/05 11:34:19;;;;;;;10.15;3.17;;;9.30;99.90;;;;;;5136387;27;20274;-62
2022/02/05 11:36:59;;;;;;;11.70;4.57;;;9.30;99.90;;;;;;5122580;27;20210;-61
2022/02/05 11:39:26;;;;;;;5.22;3.08;;;9.30;99.90;;;;;;5131676;27;20548;-62
2022/02/05 11:41:53;;;;;;;4.40;3.60;;;9.30;99.90;;;;;;5136038;27;20257;-62
2022/02/05 11:44:24;;;;;;;13.25;3.80;;;9.30;99.90;;;;;;5124508;27;20223;-62
2022/02/05 11:47:26;;;;;;;5.95;2.63;;;9.30;99.90;;;;;;5136132;27;20234;-62
2022/02/05 11:50:15;;;;;;;8.85;3.67;;;9.30;99.90;;;;;;5123580;27;20217;-62
2022/02/05 11:53:00;;;;;;;6.75;4.28;;;9.20;99.90;;;;;;5135827;27;20221;-62
2022/02/05 11:55:35;;;;;;;8.25;3.30;;;9.20;99.90;;;;;;5136258;27;20222;-62
2022/02/05 11:58:04;;;;;;;4.93;3.13;;;9.20;99.90;;;;;;5136276;27;20247;-63
2022/02/05 12:00:33;;;;;;;5.90;3.30;;;9.20;99.90;;;;;;5126303;27;20231;-63
2022/02/05 12:03:02;;;;;;;3.88;3.42;;;9.20;99.90;;;;;;5132176;27;20567;-63
2022/02/05 12:05:32;;;;;;;8.00;3.95;;;9.20;99.90;;;;;;5116040;27;20280;-63
2022/02/05 12:08:02;;;;;;;8.40;3.70;;;9.30;99.90;;;;;;5120395;27;20294;-63
2022/02/05 12:10:34;;;;;;;9.43;4.13;;;9.30;99.90;;;;;;5135673;27;20218;-63
2022/02/05 12:13:14;;;;;;;12.07;4.63;;;9.30;99.90;;;;;;5136016;27;20227;-63
2022/02/05 12:15:42;;;;;;;9.60;4.00;;;9.30;99.90;;;;;;5135624;27;20313;-63
2022/02/05 12:18:24;;;;;;;17.48;10.90;;;9.40;99.80;;;;;;5117350;27;20572;-63
2022/02/05 12:21:26;;;;;;;11.77;3.75;;;9.50;99.70;;;;;;5114851;27;20305;-62
2022/02/05 12:26:54;;;;;;;12.88;2.95;;;9.60;98.40;;;;;;5099087;27;20218;-61
2022/02/05 12:29:33;;;;;;;8.52;2.78;;;9.70;98.10;;;;;;5134155;27;20309;-63
2022/02/05 12:32:04;;;;;;;5.97;2.67;;;9.70;98.00;;;;;;5135533;27;20261;-63
2022/02/05 12:34:35;;;;;;;12.63;3.10;;;9.80;98.00;;;;;;5122724;27;20223;-63
2022/02/05 12:37:03;;;;;;;8.70;2.97;;;9.80;98.10;;;;;;5114894;27;20292;-63
2022/02/05 12:39:34;;;;;;;6.07;4.10;;;9.90;97.90;;;;;;5123631;27;20219;-64
2022/02/05 12:42:06;;;;;;;8.93;3.33;;;9.90;97.70;;;;;;5128899;27;20230;-62
2022/02/05 12:44:36;;;;;;;11.57;3.63;;;9.90;97.10;;;;;;5119554;27;20655;-63
2022/02/05 12:47:08;;;;;;;5.95;2.78;;;9.90;96.20;;;;;;5114687;27;20227;-63
2022/02/05 12:49:42;;;;;;;8.43;3.03;;;10.00;95.40;;;;;;5114798;27;20234;-63
2022/02/05 12:52:10;;;;;;;6.13;2.78;;;10.00;95.20;;;;;;5127139;27;20309;-63
2022/02/05 12:54:45;;;;;;;7.18;4.05;;;9.90;96.10;;;;;;5135149;27;20226;-63
2022/02/05 12:57:16;;;;;;;4.85;2.65;;;9.90;95.90;;;;;;5134883;27;20214;-62
2022/02/05 12:59:43;;;;;;;4.80;2.40;;;9.90;95.70;;;;;;5134431;27;20234;-63
2022/02/05 13:02:11;;;;;;;6.50;2.92;;;9.90;95.30;;;;;;5133922;27;20671;-64
2022/02/05 13:04:39;;;;;;;6.85;3.22;;;10.00;94.60;;;;;;5133572;27;20226;-63
2022/02/05 13:07:09;;;;;;;12.60;5.47;;;9.90;95.10;;;;;;5134558;27;20222;-63
2022/02/05 13:09:44;;;;;;;5.68;3.80;;;9.90;94.90;;;;;;5134949;27;20223;-63
2022/02/05 13:12:12;;;;;;;6.25;5.18;;;9.80;94.90;;;;;;5134627;27;20218;-63
2022/02/05 13:14:45;;;;;;;6.78;2.70;;;9.80;95.00;;;;;;5134839;27;20218;-63
2022/02/05 13:17:31;;;;;;;6.20;3.10;;;9.80;95.10;;;;;;5134600;27;20219;-62
2022/02/05 13:20:19;;;;;;;4.90;2.85;;;9.80;95.20;;;;;;5134512;27;20257;-63
2022/02/05 13:25:49;;;;;;;9.40;3.38;;;9.90;95.40;;;;;;5134681;27;20555;-63
2022/02/05 13:28:35;;;;;;;9.07;3.83;;;9.80;95.50;;;;;;5134544;27;20217;-62
2022/02/05 13:34:05;;;;;;;9.52;4.53;;;9.80;95.80;;;;;;5134210;27;20267;-63
2022/02/05 13:36:43;;;;;;;4.75;2.72;;;9.80;95.40;;;;;;5134438;27;20364;-62
2022/02/05 13:39:22;;;;;;;8.32;2.90;;;9.80;95.30;;;;;;5126728;27;20291;-63
2022/02/05 13:41:57;;;;;;;6.97;3.35;;;9.80;95.40;;;;;;5129638;27;20241;-63
2022/02/05 13:44:26;;;;;;;7.65;3.03;;;9.80;95.30;;;;;;5134174;27;20675;-63
2022/02/05 13:47:04;;;;;;;7.05;3.20;;;9.80;95.40;;;;;;5133744;27;20214;-62
2022/02/05 13:49:32;;;;;;;9.70;5.90;;;9.80;95.20;;;;;;5118161;27;20246;-63
2022/02/05 13:52:10;;;;;;;7.82;4.90;;;9.80;95.20;;;;;;5124168;27;20226;-62
2022/02/05 13:54:38;;;;;;;5.97;2.80;;;9.80;95.10;;;;;;5134147;27;20217;-62
2022/02/05 13:57:07;;;;;;;7.38;4.68;;;9.80;95.20;;;;;;5133790;27;20568;-63
2022/02/05 13:59:35;;;;;;;5.50;3.05;;;9.80;95.20;;;;;;5133932;27;20561;-63
2022/02/05 14:02:17;;;;;;;8.95;3.65;;;9.90;94.90;;;;;;5133535;27;20242;-62
2022/02/05 14:04:45;;;;;;;6.72;5.38;;;9.80;94.80;;;;;;5134023;27;20218;-62
2022/02/05 14:07:12;;;;;;;7.70;3.40;;;9.90;94.60;;;;;;5133671;27;20280;-62
2022/02/05 14:09:39;;;;;;;6.00;2.30;;;9.90;94.60;;;;;;5133921;27;20218;-63
2022/02/05 14:12:19;;;;;;;5.85;2.30;;;9.80;94.30;;;;;;5133615;27;20225;-63
2022/02/05 14:15:00;;;;;;;12.20;3.30;;;9.80;94.40;;;;;;5133935;27;20355;-63
2022/02/05 14:17:27;;;;;;;9.45;3.85;;;9.90;94.60;;;;;;5134410;27;20358;-63
2022/02/05 14:20:05;;;;;;;12.85;5.25;;;9.90;94.30;;;;;;5133268;27;20222;-62
2022/02/05 14:22:36;;;;;;;14.10;7.15;;;9.90;94.20;;;;;;5133367;27;20237;-63
2022/02/05 14:25:11;;;;;;;11.85;6.05;;;9.90;94.30;;;;;;5133813;27;20747;-62
2022/02/05 14:28:00;;;;;;;7.20;3.33;;;9.80;94.20;;;;;;5133358;27;20236;-63
2022/02/05 14:30:29;;;;;;;5.30;2.83;;;9.90;94.30;;;;;;5133635;27;20230;-62
2022/02/05 14:32:58;;;;;;;5.68;3.00;;;9.90;94.30;;;;;;5133338;27;20222;-62
2022/02/05 14:35:47;;;;;;;7.78;2.70;;;9.90;93.90;;;;;;5133665;27;20222;-62
2022/02/05 14:40:58;;;;;;;10.13;4.35;;;9.80;93.50;;;;;;5133689;27;20233;-62
2022/02/05 14:43:26;;;;;;;8.18;4.55;;;9.90;93.50;;;;;;5133217;27;20230;-63
2022/02/05 14:45:54;;;;;;;4.32;3.28;;;9.80;93.30;;;;;;5133504;27;20679;-62
2022/02/05 14:48:23;;;;;;;4.30;2.72;;;9.80;93.70;;;;;;5135972;27;20206;-62
2022/02/05 14:50:52;;;;;;;5.70;2.75;;;9.80;93.80;;;;;;5137481;27;20321;-62
2022/02/05 14:53:19;;;;;;;8.52;4.13;;;9.90;93.40;;;;;;5137363;27;20601;-61
2022/02/05 14:55:46;;;;;;;5.38;2.75;;;9.90;93.00;;;;;;5137811;27;20218;-63